New Waverly, Texas
Current Conditions -  °F | °C
As of 10:43 PM on Saturday 22 Nov 2014 (Local Time) from KCXO Reporting Station
Light Rain Light Rain  
Wind Chill: 65°   Ceiling: 800
Heat Index: 65°   Visibility: 10mi
Dew Point: 63°   Wind: 12mph
Humidity: 93%   Direction: 150°SSE
Pressure: 29.76"   Gusts: NA
Location:  30.54°N, 95.48°W
Report Text: KCXO 230443Z AUTO 15010KT 10SM -RA BKN008 BKN013 OVC018 18/17 A2976 RMK AO2 PRESFR P0001 T01830172
Loading
Personal Weather Stations






























Interactive Weather Map New forecast layout! Learn more

10-Day Weather Forecast

Advertisements
Track Severe Weather on mobile